In Rescue
 
Open Full Screen Window  High Contrast Mode
Wind Gusting 00 knots
05
September 18, 2020 9:58 PM CDT
Weather Information
Wind Direction
  130 °
Wind Speed
  05 kt (6 mph)
Wind Gust
  00 kt (0 mph)
Altimeter
30.31 in
Visibility
10 SM
Temperature
11° C
52° F
Dewpoint
02° C
36° F
Humidity
54%
1hr Rain Fall
00.00 in.
24hr Rain Fall
00.00 in.
Sky Condition
Clear
VFR

METAR KSYN 190258Z AUTO 13005KT 10SM CLR 11/02 A3031 RMK AO2 T01100021

FAA Disclaimer: The data displayed is for advisory purposes only and is not to be used for flight planning or operations.